New Portland, Maine
Current Conditions -  °F | °C
As of 5:55 AM on Sunday 26 Oct 2014 (Local Time) from KWVL Reporting Station
Broken Clouds Broken Clouds  
Wind Chill: 41°   Ceiling: 100
Heat Index: 41°   Visibility: 0mi
Dew Point: 37°   Wind: 0mph
Humidity: 87%   Direction: NA
Pressure: 29.34"   Gusts: NA
Location:  44.88°N, 70.1°W
Report Text: KWVL 260955Z 00000KT M1/4SM BKN001 05/03 A2934 RMK AO1
Loading
Personal Weather Stations






























Interactive Weather Map New forecast layout! Learn more

10-Day Weather Forecast

Advertisements
Track Severe Weather on mobile